sensor_id;sensor_type;location;lat;lon;timestamp;temperature;humidity
3699;DHT22;1865;50.918;7.092;2022-12-18T00:01:37;-0.10;47.70
3699;DHT22;1865;50.918;7.092;2022-12-18T00:04:07;-0.20;47.50
3699;DHT22;1865;50.918;7.092;2022-12-18T00:06:34;-0.10;48.30
3699;DHT22;1865;50.918;7.092;2022-12-18T00:09:00;-0.10;47.40
3699;DHT22;1865;50.918;7.092;2022-12-18T00:11:28;-0.10;47.60
3699;DHT22;1865;50.918;7.092;2022-12-18T00:13:56;-0.20;47.30
3699;DHT22;1865;50.918;7.092;2022-12-18T00:16:24;-0.20;47.70
3699;DHT22;1865;50.918;7.092;2022-12-18T00:18:51;-0.10;47.80
3699;DHT22;1865;50.918;7.092;2022-12-18T00:21:17;-0.10;47.60
3699;DHT22;1865;50.918;7.092;2022-12-18T00:23:44;0.10;47.40
3699;DHT22;1865;50.918;7.092;2022-12-18T00:26:12;0.10;46.90
3699;DHT22;1865;50.918;7.092;2022-12-18T00:28:38;0.20;46.90
3699;DHT22;1865;50.918;7.092;2022-12-18T00:31:15;0.20;46.30
3699;DHT22;1865;50.918;7.092;2022-12-18T00:33:41;0.10;46.10
3699;DHT22;1865;50.918;7.092;2022-12-18T00:36:15;0.20;46.80
3699;DHT22;1865;50.918;7.092;2022-12-18T00:38:41;0.30;46.00
3699;DHT22;1865;50.918;7.092;2022-12-18T00:41:10;0.30;46.10
3699;DHT22;1865;50.918;7.092;2022-12-18T00:43:36;0.20;45.50
3699;DHT22;1865;50.918;7.092;2022-12-18T00:46:02;0.20;45.80
3699;DHT22;1865;50.918;7.092;2022-12-18T00:48:28;0.20;46.40
3699;DHT22;1865;50.918;7.092;2022-12-18T00:50:53;0.30;45.60
3699;DHT22;1865;50.918;7.092;2022-12-18T00:53:19;0.30;45.80
3699;DHT22;1865;50.918;7.092;2022-12-18T00:55:45;0.30;45.70
3699;DHT22;1865;50.918;7.092;2022-12-18T00:58:11;0.20;45.70
3699;DHT22;1865;50.918;7.092;2022-12-18T01:00:38;0.10;45.90
3699;DHT22;1865;50.918;7.092;2022-12-18T01:03:04;0.20;46.20
3699;DHT22;1865;50.918;7.092;2022-12-18T01:05:30;0.10;46.00
3699;DHT22;1865;50.918;7.092;2022-12-18T01:07:56;0.10;46.40
3699;DHT22;1865;50.918;7.092;2022-12-18T01:10:22;0.10;45.80
3699;DHT22;1865;50.918;7.092;2022-12-18T01:12:48;0.10;45.80
3699;DHT22;1865;50.918;7.092;2022-12-18T01:15:15;0.10;46.00
3699;DHT22;1865;50.918;7.092;2022-12-18T01:17:41;0.10;45.50
3699;DHT22;1865;50.918;7.092;2022-12-18T01:20:07;0.10;46.00
3699;DHT22;1865;50.918;7.092;2022-12-18T01:22:34;0.20;46.00
3699;DHT22;1865;50.918;7.092;2022-12-18T01:24:59;0.10;45.80
3699;DHT22;1865;50.918;7.092;2022-12-18T01:27:25;0.10;45.70
3699;DHT22;1865;50.918;7.092;2022-12-18T01:29:51;0.00;45.80
3699;DHT22;1865;50.918;7.092;2022-12-18T01:32:16;0.00;46.30
3699;DHT22;1865;50.918;7.092;2022-12-18T01:34:42;0.00;45.60
3699;DHT22;1865;50.918;7.092;2022-12-18T01:37:07;-0.10;45.80
3699;DHT22;1865;50.918;7.092;2022-12-18T01:39:33;-0.10;46.20
3699;DHT22;1865;50.918;7.092;2022-12-18T01:42:00;-0.10;46.10
3699;DHT22;1865;50.918;7.092;2022-12-18T01:52:34;-0.30;47.10
3699;DHT22;1865;50.918;7.092;2022-12-18T01:55:02;-0.20;46.70
3699;DHT22;1865;50.918;7.092;2022-12-18T01:57:29;-0.20;46.50
3699;DHT22;1865;50.918;7.092;2022-12-18T02:00:01;-0.20;46.30
3699;DHT22;1865;50.918;7.092;2022-12-18T02:02:28;-0.20;46.40
3699;DHT22;1865;50.918;7.092;2022-12-18T02:04:54;-0.30;46.80
3699;DHT22;1865;50.918;7.092;2022-12-18T02:10:08;-0.20;46.50
3699;DHT22;1865;50.918;7.092;2022-12-18T02:15:42;-0.10;46.50
3699;DHT22;1865;50.918;7.092;2022-12-18T02:18:13;-0.20;46.30
3699;DHT22;1865;50.918;7.092;2022-12-18T02:20:49;-0.20;46.40
3699;DHT22;1865;50.918;7.092;2022-12-18T02:23:51;-0.10;46.10
3699;DHT22;1865;50.918;7.092;2022-12-18T02:26:48;-0.20;45.80
3699;DHT22;1865;50.918;7.092;2022-12-18T02:29:21;-0.20;45.50
3699;DHT22;1865;50.918;7.092;2022-12-18T02:31:57;-0.30;46.20
3699;DHT22;1865;50.918;7.092;2022-12-18T02:34:28;-0.30;46.00
3699;DHT22;1865;50.918;7.092;2022-12-18T02:36:55;-0.30;45.70
3699;DHT22;1865;50.918;7.092;2022-12-18T02:39:22;-0.30;46.10
3699;DHT22;1865;50.918;7.092;2022-12-18T02:41:49;-0.30;46.10
3699;DHT22;1865;50.918;7.092;2022-12-18T02:44:15;-0.30;45.80
3699;DHT22;1865;50.918;7.092;2022-12-18T02:46:43;-0.30;45.60
3699;DHT22;1865;50.918;7.092;2022-12-18T02:52:31;-0.60;46.00
3699;DHT22;1865;50.918;7.092;2022-12-18T03:01:10;-0.50;46.00
3699;DHT22;1865;50.918;7.092;2022-12-18T03:03:41;-0.50;46.20
3699;DHT22;1865;50.918;7.092;2022-12-18T03:06:32;-0.70;46.60
3699;DHT22;1865;50.918;7.092;2022-12-18T03:09:01;-0.60;46.90
3699;DHT22;1865;50.918;7.092;2022-12-18T03:11:28;-0.60;47.40
3699;DHT22;1865;50.918;7.092;2022-12-18T03:14:16;-0.60;46.90
3699;DHT22;1865;50.918;7.092;2022-12-18T03:16:44;-0.50;46.90
3699;DHT22;1865;50.918;7.092;2022-12-18T03:19:16;-0.40;46.70
3699;DHT22;1865;50.918;7.092;2022-12-18T03:21:47;-0.50;46.10
3699;DHT22;1865;50.918;7.092;2022-12-18T03:24:14;-0.50;46.50
3699;DHT22;1865;50.918;7.092;2022-12-18T03:26:44;-0.40;46.60
3699;DHT22;1865;50.918;7.092;2022-12-18T03:29:25;-0.50;46.10
3699;DHT22;1865;50.918;7.092;2022-12-18T03:31:55;-0.50;46.40
3699;DHT22;1865;50.918;7.092;2022-12-18T03:34:34;-0.60;46.30
3699;DHT22;1865;50.918;7.092;2022-12-18T03:37:01;-0.60;46.40
3699;DHT22;1865;50.918;7.092;2022-12-18T03:39:27;-0.60;46.70
3699;DHT22;1865;50.918;7.092;2022-12-18T03:41:55;-0.60;46.10
3699;DHT22;1865;50.918;7.092;2022-12-18T03:44:53;-0.60;46.40
3699;DHT22;1865;50.918;7.092;2022-12-18T03:47:40;-0.60;46.70
3699;DHT22;1865;50.918;7.092;2022-12-18T03:52:40;-0.50;47.50
3699;DHT22;1865;50.918;7.092;2022-12-18T03:55:08;-0.60;46.90
3699;DHT22;1865;50.918;7.092;2022-12-18T03:57:35;-0.50;47.10
3699;DHT22;1865;50.918;7.092;2022-12-18T04:00:09;-0.50;46.80
3699;DHT22;1865;50.918;7.092;2022-12-18T04:02:38;-0.50;46.80
3699;DHT22;1865;50.918;7.092;2022-12-18T04:05:06;-0.50;46.70
3699;DHT22;1865;50.918;7.092;2022-12-18T04:07:32;-0.50;47.00
3699;DHT22;1865;50.918;7.092;2022-12-18T04:09:59;-0.50;46.90
3699;DHT22;1865;50.918;7.092;2022-12-18T04:12:28;-0.50;47.10
3699;DHT22;1865;50.918;7.092;2022-12-18T04:14:54;-0.50;46.20
3699;DHT22;1865;50.918;7.092;2022-12-18T04:17:19;-0.70;45.50
3699;DHT22;1865;50.918;7.092;2022-12-18T04:19:45;-0.80;45.70
3699;DHT22;1865;50.918;7.092;2022-12-18T04:22:11;-0.90;46.00
3699;DHT22;1865;50.918;7.092;2022-12-18T04:24:37;-1.00;45.80
3699;DHT22;1865;50.918;7.092;2022-12-18T04:27:02;-1.00;46.40
3699;DHT22;1865;50.918;7.092;2022-12-18T04:29:28;-1.00;46.40
3699;DHT22;1865;50.918;7.092;2022-12-18T04:31:53;-1.10;46.70
3699;DHT22;1865;50.918;7.092;2022-12-18T04:34:19;-1.10;47.00
3699;DHT22;1865;50.918;7.092;2022-12-18T04:36:45;-1.10;47.20
3699;DHT22;1865;50.918;7.092;2022-12-18T04:39:10;-1.00;48.50
3699;DHT22;1865;50.918;7.092;2022-12-18T04:41:36;-0.90;47.60
3699;DHT22;1865;50.918;7.092;2022-12-18T04:44:01;-0.90;46.90
3699;DHT22;1865;50.918;7.092;2022-12-18T04:46:27;-0.90;46.80
3699;DHT22;1865;50.918;7.092;2022-12-18T04:48:52;-0.70;47.30
3699;DHT22;1865;50.918;7.092;2022-12-18T04:51:18;-0.90;46.60
3699;DHT22;1865;50.918;7.092;2022-12-18T04:53:43;-0.90;47.50
3699;DHT22;1865;50.918;7.092;2022-12-18T04:56:14;-0.90;47.90
3699;DHT22;1865;50.918;7.092;2022-12-18T04:58:41;-0.90;47.90
3699;DHT22;1865;50.918;7.092;2022-12-18T05:01:07;-0.80;47.50
3699;DHT22;1865;50.918;7.092;2022-12-18T05:03:34;-0.80;47.30
3699;DHT22;1865;50.918;7.092;2022-12-18T05:05:59;-0.80;47.20
3699;DHT22;1865;50.918;7.092;2022-12-18T05:08:25;-0.80;47.60
3699;DHT22;1865;50.918;7.092;2022-12-18T05:11:05;-0.70;46.90
3699;DHT22;1865;50.918;7.092;2022-12-18T05:13:32;-0.80;47.20
3699;DHT22;1865;50.918;7.092;2022-12-18T05:15:58;-0.70;47.40
3699;DHT22;1865;50.918;7.092;2022-12-18T05:18:24;-0.60;47.10
3699;DHT22;1865;50.918;7.092;2022-12-18T05:20:51;-0.60;46.70
3699;DHT22;1865;50.918;7.092;2022-12-18T05:23:16;-0.60;46.50
3699;DHT22;1865;50.918;7.092;2022-12-18T05:25:42;-0.60;46.30
3699;DHT22;1865;50.918;7.092;2022-12-18T05:28:11;-0.60;46.60
3699;DHT22;1865;50.918;7.092;2022-12-18T05:30:36;-0.60;46.70
3699;DHT22;1865;50.918;7.092;2022-12-18T05:33:02;-0.70;46.80
3699;DHT22;1865;50.918;7.092;2022-12-18T05:35:27;-0.70;47.10
3699;DHT22;1865;50.918;7.092;2022-12-18T05:37:53;-0.80;46.80
3699;DHT22;1865;50.918;7.092;2022-12-18T05:40:18;-0.70;47.10
3699;DHT22;1865;50.918;7.092;2022-12-18T05:42:44;-0.60;46.80
3699;DHT22;1865;50.918;7.092;2022-12-18T05:45:09;-0.60;46.50
3699;DHT22;1865;50.918;7.092;2022-12-18T05:47:35;-0.60;47.00
3699;DHT22;1865;50.918;7.092;2022-12-18T05:50:01;-0.60;46.70
3699;DHT22;1865;50.918;7.092;2022-12-18T05:52:26;-0.50;47.20
3699;DHT22;1865;50.918;7.092;2022-12-18T05:54:52;-0.50;46.80
3699;DHT22;1865;50.918;7.092;2022-12-18T05:57:17;-0.50;47.00
3699;DHT22;1865;50.918;7.092;2022-12-18T05:59:43;-0.50;46.50
3699;DHT22;1865;50.918;7.092;2022-12-18T06:02:08;-0.50;46.60
3699;DHT22;1865;50.918;7.092;2022-12-18T06:04:34;-0.50;46.40
3699;DHT22;1865;50.918;7.092;2022-12-18T06:06:59;-0.50;46.50
3699;DHT22;1865;50.918;7.092;2022-12-18T06:09:25;-0.50;46.60
3699;DHT22;1865;50.918;7.092;2022-12-18T06:11:51;-0.40;46.50
3699;DHT22;1865;50.918;7.092;2022-12-18T06:14:17;-0.40;46.20
3699;DHT22;1865;50.918;7.092;2022-12-18T06:16:43;-0.50;45.90
3699;DHT22;1865;50.918;7.092;2022-12-18T06:19:14;-0.50;45.90
3699;DHT22;1865;50.918;7.092;2022-12-18T06:21:40;-0.60;45.90
3699;DHT22;1865;50.918;7.092;2022-12-18T06:24:06;-0.60;45.60
3699;DHT22;1865;50.918;7.092;2022-12-18T06:26:31;-0.80;45.30
3699;DHT22;1865;50.918;7.092;2022-12-18T06:28:57;-0.90;45.50
3699;DHT22;1865;50.918;7.092;2022-12-18T06:31:22;-0.90;45.90
3699;DHT22;1865;50.918;7.092;2022-12-18T06:33:48;-1.00;45.80
3699;DHT22;1865;50.918;7.092;2022-12-18T06:36:14;-1.10;45.70
3699;DHT22;1865;50.918;7.092;2022-12-18T06:38:41;-1.30;45.30
3699;DHT22;1865;50.918;7.092;2022-12-18T06:41:08;-1.40;45.30
3699;DHT22;1865;50.918;7.092;2022-12-18T06:43:34;-1.50;46.00
3699;DHT22;1865;50.918;7.092;2022-12-18T06:46:00;-1.40;46.00
3699;DHT22;1865;50.918;7.092;2022-12-18T06:48:26;-1.50;46.00
3699;DHT22;1865;50.918;7.092;2022-12-18T06:50:53;-1.50;46.20
3699;DHT22;1865;50.918;7.092;2022-12-18T06:53:18;-1.50;46.30
3699;DHT22;1865;50.918;7.092;2022-12-18T06:55:44;-1.50;46.30
3699;DHT22;1865;50.918;7.092;2022-12-18T06:58:09;-1.50;45.70
3699;DHT22;1865;50.918;7.092;2022-12-18T07:00:35;-1.50;45.80
3699;DHT22;1865;50.918;7.092;2022-12-18T07:03:00;-1.50;45.50
3699;DHT22;1865;50.918;7.092;2022-12-18T07:05:26;-1.50;45.00
3699;DHT22;1865;50.918;7.092;2022-12-18T07:07:51;-1.70;44.50
3699;DHT22;1865;50.918;7.092;2022-12-18T07:10:17;-1.80;44.70
3699;DHT22;1865;50.918;7.092;2022-12-18T07:12:43;-2.10;44.80
3699;DHT22;1865;50.918;7.092;2022-12-18T07:15:08;-2.30;45.70
3699;DHT22;1865;50.918;7.092;2022-12-18T07:17:34;-2.40;46.30
3699;DHT22;1865;50.918;7.092;2022-12-18T07:19:59;-2.50;46.30
3699;DHT22;1865;50.918;7.092;2022-12-18T07:22:25;-2.70;46.80
3699;DHT22;1865;50.918;7.092;2022-12-18T07:24:51;-2.60;47.30
3699;DHT22;1865;50.918;7.092;2022-12-18T07:27:16;-2.60;47.40
3699;DHT22;1865;50.918;7.092;2022-12-18T07:29:42;-2.60;46.80
3699;DHT22;1865;50.918;7.092;2022-12-18T07:32:07;-2.50;46.80
3699;DHT22;1865;50.918;7.092;2022-12-18T07:34:33;-2.50;46.50
3699;DHT22;1865;50.918;7.092;2022-12-18T07:36:59;-2.60;46.30
3699;DHT22;1865;50.918;7.092;2022-12-18T07:39:24;-2.80;45.90
3699;DHT22;1865;50.918;7.092;2022-12-18T07:41:50;-2.90;47.10
3699;DHT22;1865;50.918;7.092;2022-12-18T07:44:34;-2.90;47.40
3699;DHT22;1865;50.918;7.092;2022-12-18T07:47:00;-2.70;47.50
3699;DHT22;1865;50.918;7.092;2022-12-18T07:49:25;-2.50;47.60
3699;DHT22;1865;50.918;7.092;2022-12-18T07:51:51;-2.40;47.50
3699;DHT22;1865;50.918;7.092;2022-12-18T07:54:16;-2.20;47.00
3699;DHT22;1865;50.918;7.092;2022-12-18T07:56:42;-2.10;46.40
3699;DHT22;1865;50.918;7.092;2022-12-18T07:59:07;-2.00;46.50
3699;DHT22;1865;50.918;7.092;2022-12-18T08:01:33;-2.10;46.10
3699;DHT22;1865;50.918;7.092;2022-12-18T08:03:58;-2.00;46.20
3699;DHT22;1865;50.918;7.092;2022-12-18T08:06:24;-1.90;47.30
3699;DHT22;1865;50.918;7.092;2022-12-18T08:08:53;-1.80;46.50
3699;DHT22;1865;50.918;7.092;2022-12-18T08:11:19;-1.70;46.60
3699;DHT22;1865;50.918;7.092;2022-12-18T08:13:45;-1.70;45.80
3699;DHT22;1865;50.918;7.092;2022-12-18T08:16:10;-1.50;46.10
3699;DHT22;1865;50.918;7.092;2022-12-18T08:18:37;-1.50;45.60
3699;DHT22;1865;50.918;7.092;2022-12-18T08:21:15;-1.50;45.40
3699;DHT22;1865;50.918;7.092;2022-12-18T08:23:41;-1.30;45.70
3699;DHT22;1865;50.918;7.092;2022-12-18T08:26:07;-1.30;45.60
3699;DHT22;1865;50.918;7.092;2022-12-18T08:28:33;-1.20;45.60
3699;DHT22;1865;50.918;7.092;2022-12-18T08:30:59;-1.00;46.00
3699;DHT22;1865;50.918;7.092;2022-12-18T08:33:25;-0.90;46.00
3699;DHT22;1865;50.918;7.092;2022-12-18T08:35:51;-0.70;46.50
3699;DHT22;1865;50.918;7.092;2022-12-18T08:38:17;-0.60;46.30
3699;DHT22;1865;50.918;7.092;2022-12-18T08:40:43;-0.50;46.70
3699;DHT22;1865;50.918;7.092;2022-12-18T08:43:10;-0.30;46.30
3699;DHT22;1865;50.918;7.092;2022-12-18T08:45:54;-0.20;45.90
3699;DHT22;1865;50.918;7.092;2022-12-18T08:48:20;-0.10;46.80
3699;DHT22;1865;50.918;7.092;2022-12-18T08:50:55;0.00;46.50
3699;DHT22;1865;50.918;7.092;2022-12-18T08:53:21;0.30;46.80
3699;DHT22;1865;50.918;7.092;2022-12-18T08:55:47;0.30;46.20
3699;DHT22;1865;50.918;7.092;2022-12-18T08:58:12;0.40;46.60
3699;DHT22;1865;50.918;7.092;2022-12-18T09:00:38;0.60;46.30
3699;DHT22;1865;50.918;7.092;2022-12-18T09:03:03;0.80;46.20
3699;DHT22;1865;50.918;7.092;2022-12-18T09:05:29;1.10;45.90
3699;DHT22;1865;50.918;7.092;2022-12-18T09:07:55;1.50;45.40
3699;DHT22;1865;50.918;7.092;2022-12-18T09:10:21;1.70;43.90
3699;DHT22;1865;50.918;7.092;2022-12-18T09:12:47;1.80;42.70
3699;DHT22;1865;50.918;7.092;2022-12-18T09:15:12;1.60;42.90
3699;DHT22;1865;50.918;7.092;2022-12-18T09:17:38;1.60;43.50
3699;DHT22;1865;50.918;7.092;2022-12-18T09:20:04;1.70;43.40
3699;DHT22;1865;50.918;7.092;2022-12-18T09:22:30;1.60;43.60
3699;DHT22;1865;50.918;7.092;2022-12-18T09:24:56;1.60;43.80
3699;DHT22;1865;50.918;7.092;2022-12-18T09:27:21;1.70;44.20
3699;DHT22;1865;50.918;7.092;2022-12-18T09:29:47;1.80;43.40
3699;DHT22;1865;50.918;7.092;2022-12-18T09:32:12;1.70;44.10
3699;DHT22;1865;50.918;7.092;2022-12-18T09:34:38;1.80;43.80
3699;DHT22;1865;50.918;7.092;2022-12-18T09:37:03;1.90;43.80
3699;DHT22;1865;50.918;7.092;2022-12-18T09:39:29;2.00;43.30
3699;DHT22;1865;50.918;7.092;2022-12-18T09:41:56;2.00;43.10
3699;DHT22;1865;50.918;7.092;2022-12-18T09:44:32;2.00;43.50
3699;DHT22;1865;50.918;7.092;2022-12-18T09:47:11;2.10;42.60
3699;DHT22;1865;50.918;7.092;2022-12-18T09:49:46;2.20;42.30
3699;DHT22;1865;50.918;7.092;2022-12-18T09:52:26;2.40;42.80
3699;DHT22;1865;50.918;7.092;2022-12-18T09:58:24;2.50;41.70
3699;DHT22;1865;50.918;7.092;2022-12-18T10:00:54;2.70;42.10
3699;DHT22;1865;50.918;7.092;2022-12-18T10:03:20;2.90;41.50
3699;DHT22;1865;50.918;7.092;2022-12-18T10:08:46;3.30;40.30
3699;DHT22;1865;50.918;7.092;2022-12-18T10:14:23;3.30;39.80
3699;DHT22;1865;50.918;7.092;2022-12-18T10:17:26;3.40;39.50
3699;DHT22;1865;50.918;7.092;2022-12-18T10:25:41;3.60;39.50
3699;DHT22;1865;50.918;7.092;2022-12-18T10:28:13;3.80;38.10
3699;DHT22;1865;50.918;7.092;2022-12-18T10:30:42;3.50;38.40
3699;DHT22;1865;50.918;7.092;2022-12-18T10:33:20;3.50;38.80
3699;DHT22;1865;50.918;7.092;2022-12-18T10:35:49;3.40;38.80
3699;DHT22;1865;50.918;7.092;2022-12-18T10:43:47;3.80;38.60
3699;DHT22;1865;50.918;7.092;2022-12-18T10:46:16;3.90;38.30
3699;DHT22;1865;50.918;7.092;2022-12-18T10:48:54;4.00;37.70
3699;DHT22;1865;50.918;7.092;2022-12-18T10:53:56;4.10;37.90
3699;DHT22;1865;50.918;7.092;2022-12-18T10:56:24;4.20;37.90
3699;DHT22;1865;50.918;7.092;2022-12-18T10:59:10;4.30;37.80
3699;DHT22;1865;50.918;7.092;2022-12-18T11:01:50;4.30;38.00
3699;DHT22;1865;50.918;7.092;2022-12-18T11:04:24;4.50;38.20
3699;DHT22;1865;50.918;7.092;2022-12-18T11:09:31;4.50;38.10
3699;DHT22;1865;50.918;7.092;2022-12-18T11:12:03;4.40;37.10
3699;DHT22;1865;50.918;7.092;2022-12-18T11:14:33;4.50;38.00
3699;DHT22;1865;50.918;7.092;2022-12-18T11:17:02;4.40;37.00
3699;DHT22;1865;50.918;7.092;2022-12-18T11:19:32;4.50;38.00
3699;DHT22;1865;50.918;7.092;2022-12-18T11:21:59;4.50;37.60
3699;DHT22;1865;50.918;7.092;2022-12-18T11:24:33;4.40;37.40
3699;DHT22;1865;50.918;7.092;2022-12-18T11:27:05;4.30;38.20
3699;DHT22;1865;50.918;7.092;2022-12-18T11:29:40;4.20;38.20
3699;DHT22;1865;50.918;7.092;2022-12-18T11:32:31;4.30;38.00
3699;DHT22;1865;50.918;7.092;2022-12-18T11:35:32;4.60;37.60
3699;DHT22;1865;50.918;7.092;2022-12-18T11:38:04;4.50;37.70
3699;DHT22;1865;50.918;7.092;2022-12-18T11:40:35;4.20;37.90
3699;DHT22;1865;50.918;7.092;2022-12-18T11:43:40;3.90;38.00
3699;DHT22;1865;50.918;7.092;2022-12-18T11:46:12;3.70;39.00
3699;DHT22;1865;50.918;7.092;2022-12-18T11:48:58;3.80;39.90
3699;DHT22;1865;50.918;7.092;2022-12-18T11:51:34;3.70;39.60
3699;DHT22;1865;50.918;7.092;2022-12-18T11:54:01;3.70;39.80
3699;DHT22;1865;50.918;7.092;2022-12-18T11:56:36;3.70;39.70
3699;DHT22;1865;50.918;7.092;2022-12-18T12:01:52;3.90;39.20
3699;DHT22;1865;50.918;7.092;2022-12-18T12:13:22;3.70;40.80
3699;DHT22;1865;50.918;7.092;2022-12-18T12:27:20;3.30;40.60
3699;DHT22;1865;50.918;7.092;2022-12-18T12:30:00;3.60;40.40
3699;DHT22;1865;50.918;7.092;2022-12-18T12:33:03;3.70;40.10
3699;DHT22;1865;50.918;7.092;2022-12-18T12:35:55;3.60;39.80
3699;DHT22;1865;50.918;7.092;2022-12-18T12:38:49;3.70;39.80
3699;DHT22;1865;50.918;7.092;2022-12-18T12:41:21;3.70;40.20
3699;DHT22;1865;50.918;7.092;2022-12-18T12:44:14;3.70;40.30
3699;DHT22;1865;50.918;7.092;2022-12-18T12:46:42;3.80;40.00
3699;DHT22;1865;50.918;7.092;2022-12-18T12:49:17;3.80;39.70
3699;DHT22;1865;50.918;7.092;2022-12-18T12:51:47;3.90;39.90
3699;DHT22;1865;50.918;7.092;2022-12-18T12:54:23;3.90;39.60
3699;DHT22;1865;50.918;7.092;2022-12-18T12:57:12;3.80;39.70
3699;DHT22;1865;50.918;7.092;2022-12-18T13:02:50;3.90;39.60
3699;DHT22;1865;50.918;7.092;2022-12-18T13:08:11;3.70;40.10
3699;DHT22;1865;50.918;7.092;2022-12-18T13:10:43;3.60;40.40
3699;DHT22;1865;50.918;7.092;2022-12-18T13:13:10;3.60;39.80
3699;DHT22;1865;50.918;7.092;2022-12-18T13:16:03;3.70;40.20
3699;DHT22;1865;50.918;7.092;2022-12-18T13:18:29;3.80;40.00
3699;DHT22;1865;50.918;7.092;2022-12-18T13:23:36;3.80;39.90
3699;DHT22;1865;50.918;7.092;2022-12-18T13:31:15;3.60;40.10
3699;DHT22;1865;50.918;7.092;2022-12-18T13:34:22;3.70;40.10
3699;DHT22;1865;50.918;7.092;2022-12-18T13:36:48;3.70;39.90
3699;DHT22;1865;50.918;7.092;2022-12-18T13:41:41;3.30;40.40
3699;DHT22;1865;50.918;7.092;2022-12-18T13:44:26;3.30;40.40
3699;DHT22;1865;50.918;7.092;2022-12-18T13:46:55;3.30;40.30
3699;DHT22;1865;50.918;7.092;2022-12-18T13:52:03;3.40;40.50
3699;DHT22;1865;50.918;7.092;2022-12-18T13:54:42;3.30;40.60
3699;DHT22;1865;50.918;7.092;2022-12-18T13:57:42;3.30;40.60
3699;DHT22;1865;50.918;7.092;2022-12-18T14:00:28;3.30;40.20
3699;DHT22;1865;50.918;7.092;2022-12-18T14:02:55;3.30;40.40
3699;DHT22;1865;50.918;7.092;2022-12-18T14:05:34;3.50;40.80
3699;DHT22;1865;50.918;7.092;2022-12-18T14:08:05;3.40;40.00
3699;DHT22;1865;50.918;7.092;2022-12-18T14:10:31;3.30;40.30
3699;DHT22;1865;50.918;7.092;2022-12-18T14:12:58;3.10;40.80
3699;DHT22;1865;50.918;7.092;2022-12-18T14:15:46;3.20;40.70
3699;DHT22;1865;50.918;7.092;2022-12-18T14:18:17;3.10;41.20
3699;DHT22;1865;50.918;7.092;2022-12-18T14:20:45;3.00;41.50
3699;DHT22;1865;50.918;7.092;2022-12-18T14:23:36;3.10;40.90
3699;DHT22;1865;50.918;7.092;2022-12-18T14:26:26;2.80;41.50
3699;DHT22;1865;50.918;7.092;2022-12-18T14:28:54;3.00;41.60
3699;DHT22;1865;50.918;7.092;2022-12-18T14:31:27;2.90;41.60
3699;DHT22;1865;50.918;7.092;2022-12-18T14:33:55;2.80;41.80
3699;DHT22;1865;50.918;7.092;2022-12-18T14:36:24;2.70;41.70
3699;DHT22;1865;50.918;7.092;2022-12-18T14:38:55;2.70;41.50
3699;DHT22;1865;50.918;7.092;2022-12-18T14:41:22;2.70;41.50
3699;DHT22;1865;50.918;7.092;2022-12-18T14:43:53;2.40;41.90
3699;DHT22;1865;50.918;7.092;2022-12-18T14:49:22;2.40;42.40
3699;DHT22;1865;50.918;7.092;2022-12-18T14:51:51;2.50;42.50
3699;DHT22;1865;50.918;7.092;2022-12-18T14:54:19;2.60;42.30
3699;DHT22;1865;50.918;7.092;2022-12-18T14:56:47;2.70;42.40
3699;DHT22;1865;50.918;7.092;2022-12-18T14:59:15;2.70;42.20
3699;DHT22;1865;50.918;7.092;2022-12-18T15:04:34;2.80;41.40
3699;DHT22;1865;50.918;7.092;2022-12-18T15:07:17;2.80;41.40
3699;DHT22;1865;50.918;7.092;2022-12-18T15:10:00;2.80;41.00
3699;DHT22;1865;50.918;7.092;2022-12-18T15:12:42;2.80;41.40
3699;DHT22;1865;50.918;7.092;2022-12-18T15:20:56;2.90;41.10
3699;DHT22;1865;50.918;7.092;2022-12-18T15:23:51;2.70;41.30
3699;DHT22;1865;50.918;7.092;2022-12-18T15:26:21;2.70;41.80
3699;DHT22;1865;50.918;7.092;2022-12-18T15:28:49;2.60;41.30
3699;DHT22;1865;50.918;7.092;2022-12-18T15:34:29;2.80;41.60
3699;DHT22;1865;50.918;7.092;2022-12-18T15:36:30;2.40;42.20
3699;DHT22;1865;50.918;7.092;2022-12-18T15:38:57;2.50;42.60
3699;DHT22;1865;50.918;7.092;2022-12-18T15:44:45;2.40;42.80
3699;DHT22;1865;50.918;7.092;2022-12-18T15:47:12;2.50;43.00
3699;DHT22;1865;50.918;7.092;2022-12-18T15:49:38;2.30;42.70
3699;DHT22;1865;50.918;7.092;2022-12-18T15:52:05;2.30;43.40
3699;DHT22;1865;50.918;7.092;2022-12-18T15:54:35;2.20;43.10
3699;DHT22;1865;50.918;7.092;2022-12-18T15:57:24;2.20;43.70
3699;DHT22;1865;50.918;7.092;2022-12-18T15:59:54;2.00;43.80
3699;DHT22;1865;50.918;7.092;2022-12-18T16:02:22;2.00;44.90
3699;DHT22;1865;50.918;7.092;2022-12-18T16:04:49;2.30;44.40
3699;DHT22;1865;50.918;7.092;2022-12-18T16:07:15;2.30;43.50
3699;DHT22;1865;50.918;7.092;2022-12-18T16:09:42;2.50;43.70
3699;DHT22;1865;50.918;7.092;2022-12-18T16:12:21;2.60;43.20
3699;DHT22;1865;50.918;7.092;2022-12-18T16:14:48;2.50;43.30
3699;DHT22;1865;50.918;7.092;2022-12-18T16:17:15;2.10;43.90
3699;DHT22;1865;50.918;7.092;2022-12-18T16:19:42;2.10;44.40
3699;DHT22;1865;50.918;7.092;2022-12-18T16:22:17;2.20;44.50
3699;DHT22;1865;50.918;7.092;2022-12-18T16:24:43;2.10;44.30
3699;DHT22;1865;50.918;7.092;2022-12-18T16:27:09;2.10;44.30
3699;DHT22;1865;50.918;7.092;2022-12-18T16:29:34;2.30;44.60
3699;DHT22;1865;50.918;7.092;2022-12-18T16:32:00;2.20;44.60
3699;DHT22;1865;50.918;7.092;2022-12-18T16:34:32;2.30;44.40
3699;DHT22;1865;50.918;7.092;2022-12-18T16:37:04;2.20;44.30
3699;DHT22;1865;50.918;7.092;2022-12-18T16:39:30;2.30;44.40
3699;DHT22;1865;50.918;7.092;2022-12-18T16:41:58;2.30;44.20
3699;DHT22;1865;50.918;7.092;2022-12-18T16:44:25;2.40;44.00
3699;DHT22;1865;50.918;7.092;2022-12-18T16:46:52;2.20;44.60
3699;DHT22;1865;50.918;7.092;2022-12-18T16:49:18;2.40;44.60
3699;DHT22;1865;50.918;7.092;2022-12-18T16:51:46;2.40;44.20
3699;DHT22;1865;50.918;7.092;2022-12-18T16:54:13;2.50;44.20
3699;DHT22;1865;50.918;7.092;2022-12-18T16:56:38;2.10;43.70
3699;DHT22;1865;50.918;7.092;2022-12-18T16:59:04;2.10;44.80
3699;DHT22;1865;50.918;7.092;2022-12-18T17:01:31;2.00;44.60
3699;DHT22;1865;50.918;7.092;2022-12-18T17:03:59;2.10;45.00
3699;DHT22;1865;50.918;7.092;2022-12-18T17:06:28;2.10;45.00
3699;DHT22;1865;50.918;7.092;2022-12-18T17:08:55;2.10;45.20
3699;DHT22;1865;50.918;7.092;2022-12-18T17:11:23;2.00;45.00
3699;DHT22;1865;50.918;7.092;2022-12-18T17:13:49;2.00;45.10
3699;DHT22;1865;50.918;7.092;2022-12-18T17:16:15;1.90;45.90
3699;DHT22;1865;50.918;7.092;2022-12-18T17:18:42;2.10;45.80
3699;DHT22;1865;50.918;7.092;2022-12-18T17:21:08;1.80;45.40
3699;DHT22;1865;50.918;7.092;2022-12-18T17:23:35;2.00;45.70
3699;DHT22;1865;50.918;7.092;2022-12-18T17:26:03;2.10;45.20
3699;DHT22;1865;50.918;7.092;2022-12-18T17:28:33;2.20;45.00
3699;DHT22;1865;50.918;7.092;2022-12-18T17:30:59;2.20;44.30
3699;DHT22;1865;50.918;7.092;2022-12-18T17:33:25;2.10;44.80
3699;DHT22;1865;50.918;7.092;2022-12-18T17:35:50;2.20;45.50
3699;DHT22;1865;50.918;7.092;2022-12-18T17:38:17;2.10;45.60
3699;DHT22;1865;50.918;7.092;2022-12-18T17:40:44;2.20;44.40
3699;DHT22;1865;50.918;7.092;2022-12-18T17:43:10;2.20;44.60
3699;DHT22;1865;50.918;7.092;2022-12-18T17:45:36;2.10;44.60
3699;DHT22;1865;50.918;7.092;2022-12-18T17:48:03;2.10;45.10
3699;DHT22;1865;50.918;7.092;2022-12-18T17:50:29;1.90;45.30
3699;DHT22;1865;50.918;7.092;2022-12-18T17:52:57;1.90;45.70
3699;DHT22;1865;50.918;7.092;2022-12-18T17:55:23;1.80;45.70
3699;DHT22;1865;50.918;7.092;2022-12-18T17:57:49;1.90;45.30
3699;DHT22;1865;50.918;7.092;2022-12-18T18:00:15;1.70;46.00
3699;DHT22;1865;50.918;7.092;2022-12-18T18:02:42;1.90;45.70
3699;DHT22;1865;50.918;7.092;2022-12-18T18:05:07;1.70;45.90
3699;DHT22;1865;50.918;7.092;2022-12-18T18:07:33;1.90;46.00
3699;DHT22;1865;50.918;7.092;2022-12-18T18:09:59;1.70;46.00
3699;DHT22;1865;50.918;7.092;2022-12-18T18:12:24;1.70;46.30
3699;DHT22;1865;50.918;7.092;2022-12-18T18:15:09;2.00;45.20
3699;DHT22;1865;50.918;7.092;2022-12-18T18:17:35;2.10;45.80